sensor_id;sensor_type;location;lat;lon;timestamp;pressure;altitude;pressure_sealevel;temperature
65272;BMP280;51868;48.812;8.198;2022-08-01T00:01:41;100507.03;;;25.11
65272;BMP280;51868;48.812;8.198;2022-08-01T00:04:12;100507.13;;;25.05
65272;BMP280;51868;48.812;8.198;2022-08-01T00:06:39;100504.38;;;24.96
65272;BMP280;51868;48.812;8.198;2022-08-01T00:09:10;100507.31;;;24.88
65272;BMP280;51868;48.812;8.198;2022-08-01T00:11:43;100506.66;;;24.84
65272;BMP280;51868;48.812;8.198;2022-08-01T00:14:17;100507.38;;;24.82
65272;BMP280;51868;48.812;8.198;2022-08-01T00:16:46;100509.56;;;24.78
65272;BMP280;51868;48.812;8.198;2022-08-01T00:19:20;100508.84;;;24.77
65272;BMP280;51868;48.812;8.198;2022-08-01T00:21:50;100501.03;;;24.78
65272;BMP280;51868;48.812;8.198;2022-08-01T00:24:18;100497.47;;;24.79
65272;BMP280;51868;48.812;8.198;2022-08-01T00:26:48;100501.00;;;24.80
65272;BMP280;51868;48.812;8.198;2022-08-01T00:29:21;100509.53;;;24.80
65272;BMP280;51868;48.812;8.198;2022-08-01T00:31:53;100513.81;;;24.79
65272;BMP280;51868;48.812;8.198;2022-08-01T00:34:20;100509.56;;;24.78
65272;BMP280;51868;48.812;8.198;2022-08-01T00:36:49;100518.09;;;24.73
65272;BMP280;51868;48.812;8.198;2022-08-01T00:39:23;100518.19;;;24.65
65272;BMP280;51868;48.812;8.198;2022-08-01T00:41:54;100515.38;;;24.61
65272;BMP280;51868;48.812;8.198;2022-08-01T00:44:22;100510.44;;;24.60
65272;BMP280;51868;48.812;8.198;2022-08-01T00:46:51;100513.31;;;24.56
65272;BMP280;51868;48.812;8.198;2022-08-01T00:49:18;100514.09;;;24.50
65272;BMP280;51868;48.812;8.198;2022-08-01T00:51:46;100512.00;;;24.46
65272;BMP280;51868;48.812;8.198;2022-08-01T00:54:16;100506.31;;;24.44
65272;BMP280;51868;48.812;8.198;2022-08-01T00:56:48;100500.63;;;24.44
65272;BMP280;51868;48.812;8.198;2022-08-01T00:59:18;100499.94;;;24.44
65272;BMP280;51868;48.812;8.198;2022-08-01T01:01:49;100502.78;;;24.44
65272;BMP280;51868;48.812;8.198;2022-08-01T01:04:17;100508.47;;;24.42
65272;BMP280;51868;48.812;8.198;2022-08-01T01:06:48;100509.22;;;24.40
65272;BMP280;51868;48.812;8.198;2022-08-01T01:09:28;100513.47;;;24.39
65272;BMP280;51868;48.812;8.198;2022-08-01T01:12:02;100512.75;;;24.41
65272;BMP280;51868;48.812;8.198;2022-08-01T01:14:38;100508.44;;;24.44
65272;BMP280;51868;48.812;8.198;2022-08-01T01:17:13;100516.25;;;24.45
65272;BMP280;51868;48.812;8.198;2022-08-01T01:19:47;100510.59;;;24.43
65272;BMP280;51868;48.812;8.198;2022-08-01T01:22:25;100511.31;;;24.42
65272;BMP280;51868;48.812;8.198;2022-08-01T01:25:14;100514.91;;;24.38
65272;BMP280;51868;48.812;8.198;2022-08-01T01:27:51;100516.34;;;24.35
65272;BMP280;51868;48.812;8.198;2022-08-01T01:30:30;100515.63;;;24.35
65272;BMP280;51868;48.812;8.198;2022-08-01T01:33:00;100515.72;;;24.27
65272;BMP280;51868;48.812;8.198;2022-08-01T01:35:32;100517.22;;;24.13
65272;BMP280;51868;48.812;8.198;2022-08-01T01:38:05;100518.78;;;23.96
65272;BMP280;51868;48.812;8.198;2022-08-01T01:40:34;100511.06;;;23.84
65272;BMP280;51868;48.812;8.198;2022-08-01T01:43:01;100523.19;;;23.71
65272;BMP280;51868;48.812;8.198;2022-08-01T01:45:32;100514.03;;;23.60
65272;BMP280;51868;48.812;8.198;2022-08-01T01:48:09;100516.19;;;23.53
65272;BMP280;51868;48.812;8.198;2022-08-01T01:50:44;100511.94;;;23.54
65272;BMP280;51868;48.812;8.198;2022-08-01T01:53:18;100514.75;;;23.56
65272;BMP280;51868;48.812;8.198;2022-08-01T01:55:48;100514.75;;;23.58
65272;BMP280;51868;48.812;8.198;2022-08-01T01:58:17;100513.31;;;23.59
65272;BMP280;51868;48.812;8.198;2022-08-01T02:00:58;100501.97;;;23.61
65272;BMP280;51868;48.812;8.198;2022-08-01T02:03:28;100499.13;;;23.61
65272;BMP280;51868;48.812;8.198;2022-08-01T02:06:02;100507.63;;;23.61
65272;BMP280;51868;48.812;8.198;2022-08-01T02:08:31;100501.97;;;23.65
65272;BMP280;51868;48.812;8.198;2022-08-01T02:11:04;100509.00;;;23.69
65272;BMP280;51868;48.812;8.198;2022-08-01T02:13:50;100507.63;;;23.65
65272;BMP280;51868;48.812;8.198;2022-08-01T02:16:26;100506.94;;;23.67
65272;BMP280;51868;48.812;8.198;2022-08-01T02:19:01;100507.59;;;23.67
65272;BMP280;51868;48.812;8.198;2022-08-01T02:21:32;100507.59;;;23.67
65272;BMP280;51868;48.812;8.198;2022-08-01T02:24:11;100512.59;;;23.61
65272;BMP280;51868;48.812;8.198;2022-08-01T02:26:46;100510.53;;;23.53
65272;BMP280;51868;48.812;8.198;2022-08-01T02:29:21;100518.38;;;23.45
65272;BMP280;51868;48.812;8.198;2022-08-01T02:31:54;100512.69;;;23.38
65272;BMP280;51868;48.812;8.198;2022-08-01T02:34:29;100516.28;;;23.33
65272;BMP280;51868;48.812;8.198;2022-08-01T02:37:00;100518.41;;;23.30
65272;BMP280;51868;48.812;8.198;2022-08-01T02:39:29;100510.66;;;23.25
65272;BMP280;51868;48.812;8.198;2022-08-01T02:42:00;100514.22;;;23.25
65272;BMP280;51868;48.812;8.198;2022-08-01T02:44:34;100519.16;;;23.21
65272;BMP280;51868;48.812;8.198;2022-08-01T02:47:05;100517.06;;;23.13
65272;BMP280;51868;48.812;8.198;2022-08-01T02:49:39;100517.78;;;23.09
65272;BMP280;51868;48.812;8.198;2022-08-01T02:52:10;100517.78;;;23.09
65272;BMP280;51868;48.812;8.198;2022-08-01T02:54:39;100515.66;;;23.06
65272;BMP280;51868;48.812;8.198;2022-08-01T02:57:17;100518.50;;;23.00
65272;BMP280;51868;48.812;8.198;2022-08-01T02:59:47;100527.72;;;22.92
65272;BMP280;51868;48.812;8.198;2022-08-01T03:02:17;100524.91;;;22.86
65272;BMP280;51868;48.812;8.198;2022-08-01T03:04:46;100518.56;;;22.81
65272;BMP280;51868;48.812;8.198;2022-08-01T03:07:14;100529.16;;;22.83
65272;BMP280;51868;48.812;8.198;2022-08-01T03:09:45;100524.94;;;22.84
65272;BMP280;51868;48.812;8.198;2022-08-01T03:12:15;100522.09;;;22.84
65272;BMP280;51868;48.812;8.198;2022-08-01T03:15:02;100527.75;;;22.86
65272;BMP280;51868;48.812;8.198;2022-08-01T03:17:34;100518.53;;;22.85
65272;BMP280;51868;48.812;8.198;2022-08-01T03:20:05;100519.97;;;22.84
65272;BMP280;51868;48.812;8.198;2022-08-01T03:22:42;100515.00;;;22.83
65272;BMP280;51868;48.812;8.198;2022-08-01T03:25:11;100522.09;;;22.80
65272;BMP280;51868;48.812;8.198;2022-08-01T03:27:40;100527.06;;;22.79
65272;BMP280;51868;48.812;8.198;2022-08-01T03:30:15;100515.75;;;22.75
65272;BMP280;51868;48.812;8.198;2022-08-01T03:32:44;100510.78;;;22.74
65272;BMP280;51868;48.812;8.198;2022-08-01T03:35:22;100513.59;;;22.72
65272;BMP280;51868;48.812;8.198;2022-08-01T03:37:52;100515.03;;;22.65
65272;BMP280;51868;48.812;8.198;2022-08-01T03:40:23;100508.69;;;22.54
65272;BMP280;51868;48.812;8.198;2022-08-01T03:42:54;100512.91;;;22.47
65272;BMP280;51868;48.812;8.198;2022-08-01T03:45:30;100510.09;;;22.43
65272;BMP280;51868;48.812;8.198;2022-08-01T03:48:03;100511.50;;;22.44
65272;BMP280;51868;48.812;8.198;2022-08-01T03:50:41;100508.69;;;22.44
65272;BMP280;51868;48.812;8.198;2022-08-01T03:53:10;100509.41;;;22.42
65272;BMP280;51868;48.812;8.198;2022-08-01T03:55:38;100514.34;;;22.42
65272;BMP280;51868;48.812;8.198;2022-08-01T03:58:08;100511.50;;;22.44
65272;BMP280;51868;48.812;8.198;2022-08-01T04:00:38;100512.22;;;22.48
65272;BMP280;51868;48.812;8.198;2022-08-01T04:03:09;100515.03;;;22.50
65272;BMP280;51868;48.812;8.198;2022-08-01T04:05:38;100519.28;;;22.51
65272;BMP280;51868;48.812;8.198;2022-08-01T04:08:11;100523.53;;;22.52
65272;BMP280;51868;48.812;8.198;2022-08-01T04:10:45;100515.06;;;22.48
65272;BMP280;51868;48.812;8.198;2022-08-01T04:13:22;100519.31;;;22.45
65272;BMP280;51868;48.812;8.198;2022-08-01T04:15:49;100513.63;;;22.41
65272;BMP280;51868;48.812;8.198;2022-08-01T04:18:20;100522.09;;;22.39
65272;BMP280;51868;48.812;8.198;2022-08-01T04:21:01;100517.88;;;22.36
65272;BMP280;51868;48.812;8.198;2022-08-01T04:23:31;100523.53;;;22.34
65272;BMP280;51868;48.812;8.198;2022-08-01T04:26:02;100517.16;;;22.38
65272;BMP280;51868;48.812;8.198;2022-08-01T04:28:36;100518.59;;;22.43
65272;BMP280;51868;48.812;8.198;2022-08-01T04:31:06;100525.66;;;22.42
65272;BMP280;51868;48.812;8.198;2022-08-01T04:33:39;100524.94;;;22.35
65272;BMP280;51868;48.812;8.198;2022-08-01T04:36:10;100525.66;;;22.36
65272;BMP280;51868;48.812;8.198;2022-08-01T04:38:46;100523.53;;;22.40
65272;BMP280;51868;48.812;8.198;2022-08-01T04:41:26;100526.38;;;22.42
65272;BMP280;51868;48.812;8.198;2022-08-01T04:43:54;100529.19;;;22.42
65272;BMP280;51868;48.812;8.198;2022-08-01T04:46:27;100531.31;;;22.44
65272;BMP280;51868;48.812;8.198;2022-08-01T04:49:00;100527.78;;;22.41
65272;BMP280;51868;48.812;8.198;2022-08-01T04:51:37;100523.53;;;22.42
65272;BMP280;51868;48.812;8.198;2022-08-01T04:57:34;100524.94;;;22.55
65272;BMP280;51868;48.812;8.198;2022-08-01T05:00:06;100522.81;;;22.58
65272;BMP280;51868;48.812;8.198;2022-08-01T05:02:41;100527.78;;;22.59
65272;BMP280;51868;48.812;8.198;2022-08-01T05:05:26;100532.03;;;22.58
65272;BMP280;51868;48.812;8.198;2022-08-01T05:07:56;100522.13;;;22.62
65272;BMP280;51868;48.812;8.198;2022-08-01T05:10:25;100526.34;;;22.67
65272;BMP280;51868;48.812;8.198;2022-08-01T05:13:04;100534.84;;;22.73
65272;BMP280;51868;48.812;8.198;2022-08-01T05:15:39;100534.81;;;22.83
65272;BMP280;51868;48.812;8.198;2022-08-01T05:18:13;100536.25;;;22.84
65272;BMP280;51868;48.812;8.198;2022-08-01T05:21:10;100534.09;;;22.89
65272;BMP280;51868;48.812;8.198;2022-08-01T05:24:00;100536.22;;;22.92
65272;BMP280;51868;48.812;8.198;2022-08-01T05:27:14;100543.97;;;23.00
65272;BMP280;51868;48.812;8.198;2022-08-01T05:29:43;100535.47;;;23.14
65272;BMP280;51868;48.812;8.198;2022-08-01T05:32:10;100536.84;;;23.19
65272;BMP280;51868;48.812;8.198;2022-08-01T05:34:44;100539.66;;;23.29
65272;BMP280;51868;48.812;8.198;2022-08-01T05:37:13;100545.97;;;23.38
65272;BMP280;51868;48.812;8.198;2022-08-01T05:39:40;100541.72;;;23.47
65272;BMP280;51868;48.812;8.198;2022-08-01T05:42:10;100535.28;;;23.55
65272;BMP280;51868;48.812;8.198;2022-08-01T05:44:38;100528.91;;;23.62
65272;BMP280;51868;48.812;8.198;2022-08-01T05:47:05;100535.91;;;23.72
65272;BMP280;51868;48.812;8.198;2022-08-01T05:49:34;100530.19;;;23.80
65272;BMP280;51868;48.812;8.198;2022-08-01T05:52:01;100536.63;;;23.72
65272;BMP280;51868;48.812;8.198;2022-08-01T05:54:29;100531.72;;;23.64
65272;BMP280;51868;48.812;8.198;2022-08-01T05:56:58;100534.47;;;23.79
65272;BMP280;51868;48.812;8.198;2022-08-01T05:59:27;100537.19;;;23.97
65272;BMP280;51868;48.812;8.198;2022-08-01T06:01:53;100533.50;;;24.17
65272;BMP280;51868;48.812;8.198;2022-08-01T06:04:20;100527.00;;;24.31
65272;BMP280;51868;48.812;8.198;2022-08-01T06:06:50;100529.69;;;24.49
65272;BMP280;51868;48.812;8.198;2022-08-01T06:09:18;100536.66;;;24.62
65272;BMP280;51868;48.812;8.198;2022-08-01T06:11:48;100532.97;;;24.76
65272;BMP280;51868;48.812;8.198;2022-08-01T06:14:16;100536.41;;;24.87
65272;BMP280;51868;48.812;8.198;2022-08-01T06:16:43;100530.66;;;24.95
65272;BMP280;51868;48.812;8.198;2022-08-01T06:19:10;100532.00;;;25.02
65272;BMP280;51868;48.812;8.198;2022-08-01T06:21:37;100521.94;;;25.11
65272;BMP280;51868;48.812;8.198;2022-08-01T06:27:16;100523.16;;;25.28
65272;BMP280;51868;48.812;8.198;2022-08-01T06:29:45;100529.41;;;25.41
65272;BMP280;51868;48.812;8.198;2022-08-01T06:32:26;100534.88;;;25.55
65272;BMP280;51868;48.812;8.198;2022-08-01T06:34:57;100523.34;;;25.68
65272;BMP280;51868;48.812;8.198;2022-08-01T06:37:28;100533.88;;;25.75
65272;BMP280;51868;48.812;8.198;2022-08-01T06:40:01;100536.59;;;25.83
65272;BMP280;51868;48.812;8.198;2022-08-01T06:45:56;100534.16;;;26.04
65272;BMP280;51868;48.812;8.198;2022-08-01T06:48:36;100536.13;;;26.14
65272;BMP280;51868;48.812;8.198;2022-08-01T06:51:05;100533.13;;;26.24
65272;BMP280;51868;48.812;8.198;2022-08-01T06:53:37;100538.00;;;26.30
65272;BMP280;51868;48.812;8.198;2022-08-01T06:56:08;100538.56;;;26.38
65272;BMP280;51868;48.812;8.198;2022-08-01T06:58:37;100532.06;;;26.44
65272;BMP280;51868;48.812;8.198;2022-08-01T07:01:09;100536.97;;;26.48
65272;BMP280;51868;48.812;8.198;2022-08-01T07:03:37;100539.63;;;26.58
65272;BMP280;51868;48.812;8.198;2022-08-01T07:06:04;100535.84;;;26.69
65272;BMP280;51868;48.812;8.198;2022-08-01T07:08:31;100537.03;;;26.83
65272;BMP280;51868;48.812;8.198;2022-08-01T07:10:58;100537.63;;;26.89
65272;BMP280;51868;48.812;8.198;2022-08-01T07:13:30;100538.94;;;26.94
65272;BMP280;51868;48.812;8.198;2022-08-01T07:16:03;100541.56;;;27.07
65272;BMP280;51868;48.812;8.198;2022-08-01T07:18:39;100538.44;;;27.19
65272;BMP280;51868;48.812;8.198;2022-08-01T07:21:12;100536.78;;;27.30
65272;BMP280;51868;48.812;8.198;2022-08-01T07:23:41;100533.78;;;27.36
65272;BMP280;51868;48.812;8.198;2022-08-01T07:26:08;100537.88;;;27.45
65272;BMP280;51868;48.812;8.198;2022-08-01T07:28:35;100529.13;;;27.53
65272;BMP280;51868;48.812;8.198;2022-08-01T07:31:15;100523.44;;;27.53
65272;BMP280;51868;48.812;8.198;2022-08-01T07:33:50;100526.78;;;27.64
65272;BMP280;51868;48.812;8.198;2022-08-01T07:36:19;100519.06;;;27.57
65272;BMP280;51868;48.812;8.198;2022-08-01T07:38:49;100513.75;;;27.40
65272;BMP280;51868;48.812;8.198;2022-08-01T07:41:36;100521.50;;;27.46
65272;BMP280;51868;48.812;8.198;2022-08-01T07:44:03;100522.53;;;27.61
65272;BMP280;51868;48.812;8.198;2022-08-01T07:46:31;100521.47;;;27.77
65272;BMP280;51868;48.812;8.198;2022-08-01T07:49:00;100524.13;;;27.85
65272;BMP280;51868;48.812;8.198;2022-08-01T07:51:28;100518.25;;;27.91
65272;BMP280;51868;48.812;8.198;2022-08-01T07:53:55;100523.16;;;27.95
65272;BMP280;51868;48.812;8.198;2022-08-01T07:56:24;100513.75;;;28.00
65272;BMP280;51868;48.812;8.198;2022-08-01T07:58:53;100512.09;;;28.09
65272;BMP280;51868;48.812;8.198;2022-08-01T08:01:23;100511.66;;;28.26
65272;BMP280;51868;48.812;8.198;2022-08-01T08:03:52;100504.72;;;28.46
65272;BMP280;51868;48.812;8.198;2022-08-01T08:06:20;100500.59;;;28.65
65272;BMP280;51868;48.812;8.198;2022-08-01T08:08:49;100508.81;;;28.78
65272;BMP280;51868;48.812;8.198;2022-08-01T08:11:19;100505.50;;;28.94
65272;BMP280;51868;48.812;8.198;2022-08-01T08:13:51;100506.00;;;29.01
65272;BMP280;51868;48.812;8.198;2022-08-01T08:16:22;100514.34;;;29.09
65272;BMP280;51868;48.812;8.198;2022-08-01T08:18:52;100508.81;;;29.26
65272;BMP280;51868;48.812;8.198;2022-08-01T08:21:24;100512.56;;;29.43
65272;BMP280;51868;48.812;8.198;2022-08-01T08:23:57;100501.59;;;29.29
65272;BMP280;51868;48.812;8.198;2022-08-01T08:26:41;100502.47;;;29.46
65272;BMP280;51868;48.812;8.198;2022-08-01T08:29:11;100501.53;;;29.53
65272;BMP280;51868;48.812;8.198;2022-08-01T08:31:38;100495.91;;;29.49
65272;BMP280;51868;48.812;8.198;2022-08-01T08:34:07;100497.44;;;29.46
65272;BMP280;51868;48.812;8.198;2022-08-01T08:36:35;100501.53;;;29.53
65272;BMP280;51868;48.812;8.198;2022-08-01T08:39:02;100497.59;;;29.63
65272;BMP280;51868;48.812;8.198;2022-08-01T08:41:30;100496.78;;;29.67
65272;BMP280;51868;48.812;8.198;2022-08-01T08:44:00;100499.53;;;29.71
65272;BMP280;51868;48.812;8.198;2022-08-01T08:46:33;100489.97;;;29.78
65272;BMP280;51868;48.812;8.198;2022-08-01T08:49:03;100493.84;;;29.69
65272;BMP280;51868;48.812;8.198;2022-08-01T08:51:31;100494.56;;;29.69
65272;BMP280;51868;48.812;8.198;2022-08-01T08:54:02;100490.97;;;29.92
65272;BMP280;51868;48.812;8.198;2022-08-01T08:56:34;100487.59;;;30.06
65272;BMP280;51868;48.812;8.198;2022-08-01T08:59:02;100483.34;;;30.26
65272;BMP280;51868;48.812;8.198;2022-08-01T09:01:32;100481.59;;;30.35
65272;BMP280;51868;48.812;8.198;2022-08-01T09:04:00;100485.91;;;30.13
65272;BMP280;51868;48.812;8.198;2022-08-01T09:06:31;100486.50;;;29.97
65272;BMP280;51868;48.812;8.198;2022-08-01T09:09:02;100483.44;;;29.82
65272;BMP280;51868;48.812;8.198;2022-08-01T09:11:34;100490.88;;;29.73
65272;BMP280;51868;48.812;8.198;2022-08-01T09:14:04;100491.41;;;30.00
65272;BMP280;51868;48.812;8.198;2022-08-01T09:16:36;100491.88;;;29.86
65272;BMP280;51868;48.812;8.198;2022-08-01T09:19:10;100488.03;;;29.73
65272;BMP280;51868;48.812;8.198;2022-08-01T09:21:37;100500.34;;;29.67
65272;BMP280;51868;48.812;8.198;2022-08-01T09:24:14;100486.84;;;29.87
65272;BMP280;51868;48.812;8.198;2022-08-01T09:26:41;100487.66;;;30.04
65272;BMP280;51868;48.812;8.198;2022-08-01T09:29:17;100490.06;;;30.37
65272;BMP280;51868;48.812;8.198;2022-08-01T09:31:47;100489.75;;;30.26
65272;BMP280;51868;48.812;8.198;2022-08-01T09:34:15;100491.84;;;30.07
65272;BMP280;51868;48.812;8.198;2022-08-01T09:36:46;100493.75;;;29.94
65272;BMP280;51868;48.812;8.198;2022-08-01T09:39:19;100496.94;;;30.04
65272;BMP280;51868;48.812;8.198;2022-08-01T09:41:53;100499.06;;;30.06
65272;BMP280;51868;48.812;8.198;2022-08-01T09:44:38;100500.78;;;29.97
65272;BMP280;51868;48.812;8.198;2022-08-01T09:47:05;100499.41;;;29.96
65272;BMP280;51868;48.812;8.198;2022-08-01T09:49:39;100495.56;;;30.03
65272;BMP280;51868;48.812;8.198;2022-08-01T09:52:17;100495.53;;;30.24
65272;BMP280;51868;48.812;8.198;2022-08-01T09:54:53;100491.34;;;30.21
65272;BMP280;51868;48.812;8.198;2022-08-01T09:57:21;100494.81;;;30.05
65272;BMP280;51868;48.812;8.198;2022-08-01T09:59:51;100493.13;;;29.91
65272;BMP280;51868;48.812;8.198;2022-08-01T10:02:31;100498.34;;;29.85
65272;BMP280;51868;48.812;8.198;2022-08-01T10:04:59;100494.94;;;30.01
65272;BMP280;51868;48.812;8.198;2022-08-01T10:07:27;100492.13;;;29.99
65272;BMP280;51868;48.812;8.198;2022-08-01T10:10:09;100493.06;;;30.14
65272;BMP280;51868;48.812;8.198;2022-08-01T10:12:45;100488.63;;;30.57
65272;BMP280;51868;48.812;8.198;2022-08-01T10:15:50;100477.56;;;31.03
65272;BMP280;51868;48.812;8.198;2022-08-01T10:18:41;100473.84;;;31.23
65272;BMP280;51868;48.812;8.198;2022-08-01T10:21:20;100472.03;;;31.16
65272;BMP280;51868;48.812;8.198;2022-08-01T10:23:56;100462.94;;;31.45
65272;BMP280;51868;48.812;8.198;2022-08-01T10:26:44;100467.75;;;31.34
65272;BMP280;51868;48.812;8.198;2022-08-01T10:32:55;100470.03;;;30.93
65272;BMP280;51868;48.812;8.198;2022-08-01T10:35:45;100465.09;;;30.73
65272;BMP280;51868;48.812;8.198;2022-08-01T10:38:19;100476.00;;;30.87
65272;BMP280;51868;48.812;8.198;2022-08-01T10:41:06;100464.66;;;31.21
65272;BMP280;51868;48.812;8.198;2022-08-01T10:43:48;100456.78;;;31.38
65272;BMP280;51868;48.812;8.198;2022-08-01T10:46:19;100460.72;;;31.47
65272;BMP280;51868;48.812;8.198;2022-08-01T10:48:52;100461.19;;;31.35
65272;BMP280;51868;48.812;8.198;2022-08-01T10:51:26;100457.50;;;31.55
65272;BMP280;51868;48.812;8.198;2022-08-01T10:53:57;100461.22;;;31.69
65272;BMP280;51868;48.812;8.198;2022-08-01T10:56:49;100457.59;;;31.70
65272;BMP280;51868;48.812;8.198;2022-08-01T10:59:30;100457.50;;;31.55
65272;BMP280;51868;48.812;8.198;2022-08-01T11:05:47;100457.97;;;31.26
65272;BMP280;51868;48.812;8.198;2022-08-01T11:08:22;100465.94;;;31.24
65272;BMP280;51868;48.812;8.198;2022-08-01T11:11:01;100452.78;;;31.31
65272;BMP280;51868;48.812;8.198;2022-08-01T11:14:01;100458.59;;;31.46
65272;BMP280;51868;48.812;8.198;2022-08-01T11:16:34;100450.19;;;31.58
65272;BMP280;51868;48.812;8.198;2022-08-01T11:19:08;100453.41;;;31.67
65272;BMP280;51868;48.812;8.198;2022-08-01T11:22:03;100452.09;;;31.81
65272;BMP280;51868;48.812;8.198;2022-08-01T11:24:55;100446.72;;;31.56
65272;BMP280;51868;48.812;8.198;2022-08-01T11:27:27;100442.72;;;31.66
65272;BMP280;51868;48.812;8.198;2022-08-01T11:30:26;100434.88;;;31.98
65272;BMP280;51868;48.812;8.198;2022-08-01T11:33:01;100430.00;;;32.26
65272;BMP280;51868;48.812;8.198;2022-08-01T11:35:31;100433.72;;;32.39
65272;BMP280;51868;48.812;8.198;2022-08-01T11:38:28;100428.09;;;32.52
65272;BMP280;51868;48.812;8.198;2022-08-01T11:41:09;100412.72;;;32.57
65272;BMP280;51868;48.812;8.198;2022-08-01T11:43:56;100414.72;;;32.61
65272;BMP280;51868;48.812;8.198;2022-08-01T11:46:47;100415.72;;;32.55
65272;BMP280;51868;48.812;8.198;2022-08-01T11:49:25;100419.81;;;32.29
65272;BMP280;51868;48.812;8.198;2022-08-01T11:52:00;100422.00;;;31.97
65272;BMP280;51868;48.812;8.198;2022-08-01T11:54:30;100416.00;;;31.86
65272;BMP280;51868;48.812;8.198;2022-08-01T11:57:03;100403.34;;;32.12
65272;BMP280;51868;48.812;8.198;2022-08-01T11:59:36;100408.00;;;32.52
65272;BMP280;51868;48.812;8.198;2022-08-01T12:05:05;100399.69;;;32.90
65272;BMP280;51868;48.812;8.198;2022-08-01T12:07:34;100396.50;;;32.96
65272;BMP280;51868;48.812;8.198;2022-08-01T12:10:13;100400.94;;;33.07
65272;BMP280;51868;48.812;8.198;2022-08-01T12:12:53;100392.81;;;33.12
65272;BMP280;51868;48.812;8.198;2022-08-01T12:15:21;100398.53;;;33.27
65272;BMP280;51868;48.812;8.198;2022-08-01T12:17:51;100398.88;;;33.48
65272;BMP280;51868;48.812;8.198;2022-08-01T12:20:22;100386.19;;;33.70
65272;BMP280;51868;48.812;8.198;2022-08-01T12:22:53;100388.38;;;33.70
65272;BMP280;51868;48.812;8.198;2022-08-01T12:25:32;100399.66;;;33.47
65272;BMP280;51868;48.812;8.198;2022-08-01T12:28:02;100404.41;;;33.25
65272;BMP280;51868;48.812;8.198;2022-08-01T12:30:30;100399.19;;;33.15
65272;BMP280;51868;48.812;8.198;2022-08-01T12:33:05;100398.06;;;33.22
65272;BMP280;51868;48.812;8.198;2022-08-01T12:35:32;100393.91;;;33.19
65272;BMP280;51868;48.812;8.198;2022-08-01T12:38:02;100400.63;;;33.14
65272;BMP280;51868;48.812;8.198;2022-08-01T12:40:35;100379.53;;;33.19
65272;BMP280;51868;48.812;8.198;2022-08-01T12:43:03;100383.69;;;33.22
65272;BMP280;51868;48.812;8.198;2022-08-01T12:45:33;100383.28;;;33.16
65272;BMP280;51868;48.812;8.198;2022-08-01T12:48:08;100387.66;;;33.00
65272;BMP280;51868;48.812;8.198;2022-08-01T12:50:37;100399.59;;;32.92
65272;BMP280;51868;48.812;8.198;2022-08-01T12:53:05;100393.03;;;32.93
65272;BMP280;51868;48.812;8.198;2022-08-01T12:55:48;100384.19;;;33.12
65272;BMP280;51868;48.812;8.198;2022-08-01T12:58:21;100381.06;;;33.31
65272;BMP280;51868;48.812;8.198;2022-08-01T13:01:04;100387.03;;;33.27
65272;BMP280;51868;48.812;8.198;2022-08-01T13:03:34;100391.53;;;33.09
65272;BMP280;51868;48.812;8.198;2022-08-01T13:06:15;100384.78;;;33.00
65272;BMP280;51868;48.812;8.198;2022-08-01T13:09:16;100386.59;;;32.93
65272;BMP280;51868;48.812;8.198;2022-08-01T13:12:14;100383.03;;;32.92
65272;BMP280;51868;48.812;8.198;2022-08-01T13:14:55;100371.81;;;33.01
65272;BMP280;51868;48.812;8.198;2022-08-01T13:17:39;100380.63;;;33.12
65272;BMP280;51868;48.812;8.198;2022-08-01T13:20:23;100390.66;;;33.13
65272;BMP280;51868;48.812;8.198;2022-08-01T13:22:52;100389.13;;;33.14
65272;BMP280;51868;48.812;8.198;2022-08-01T13:25:31;100383.00;;;33.07
65272;BMP280;51868;48.812;8.198;2022-08-01T13:28:21;100379.34;;;33.08
65272;BMP280;51868;48.812;8.198;2022-08-01T13:30:58;100379.59;;;33.32
65272;BMP280;51868;48.812;8.198;2022-08-01T13:33:26;100381.75;;;33.31
65272;BMP280;51868;48.812;8.198;2022-08-01T13:35:56;100376.13;;;33.29
65272;BMP280;51868;48.812;8.198;2022-08-01T13:38:39;100385.22;;;33.34
65272;BMP280;51868;48.812;8.198;2022-08-01T13:41:24;100370.28;;;33.17
65272;BMP280;51868;48.812;8.198;2022-08-01T13:43:54;100372.13;;;32.95
65272;BMP280;51868;48.812;8.198;2022-08-01T13:46:21;100367.00;;;32.83
65272;BMP280;51868;48.812;8.198;2022-08-01T13:48:54;100371.16;;;32.86
65272;BMP280;51868;48.812;8.198;2022-08-01T13:51:20;100363.69;;;33.05
65272;BMP280;51868;48.812;8.198;2022-08-01T13:53:49;100367.13;;;33.23
65272;BMP280;51868;48.812;8.198;2022-08-01T13:56:19;100365.59;;;33.38
65272;BMP280;51868;48.812;8.198;2022-08-01T13:59:05;100363.19;;;33.43
65272;BMP280;51868;48.812;8.198;2022-08-01T14:01:37;100364.53;;;33.44
65272;BMP280;51868;48.812;8.198;2022-08-01T14:04:07;100362.06;;;33.51
65272;BMP280;51868;48.812;8.198;2022-08-01T14:06:45;100370.47;;;33.55
65272;BMP280;51868;48.812;8.198;2022-08-01T14:09:19;100363.94;;;33.56
65272;BMP280;51868;48.812;8.198;2022-08-01T14:11:50;100360.72;;;33.62
65272;BMP280;51868;48.812;8.198;2022-08-01T14:14:19;100362.69;;;33.66
65272;BMP280;51868;48.812;8.198;2022-08-01T14:16:57;100370.09;;;33.76
65272;BMP280;51868;48.812;8.198;2022-08-01T14:19:42;100366.75;;;33.71
65272;BMP280;51868;48.812;8.198;2022-08-01T14:22:12;100371.56;;;33.62
65272;BMP280;51868;48.812;8.198;2022-08-01T14:24:41;100364.06;;;33.54
65272;BMP280;51868;48.812;8.198;2022-08-01T14:27:15;100365.53;;;33.53
65272;BMP280;51868;48.812;8.198;2022-08-01T14:29:47;100364.13;;;33.52
65272;BMP280;51868;48.812;8.198;2022-08-01T14:32:15;100370.44;;;33.42
65272;BMP280;51868;48.812;8.198;2022-08-01T14:34:51;100369.56;;;33.31
65272;BMP280;51868;48.812;8.198;2022-08-01T14:37:24;100370.91;;;33.19
65272;BMP280;51868;48.812;8.198;2022-08-01T14:39:55;100372.69;;;33.12
65272;BMP280;51868;48.812;8.198;2022-08-01T14:42:36;100365.94;;;33.03
65272;BMP280;51868;48.812;8.198;2022-08-01T14:45:15;100369.34;;;32.93
65272;BMP280;51868;48.812;8.198;2022-08-01T14:48:00;100379.56;;;32.75
65272;BMP280;51868;48.812;8.198;2022-08-01T14:50:29;100370.25;;;32.60
65272;BMP280;51868;48.812;8.198;2022-08-01T14:52:59;100371.66;;;32.46